KOLY

Olney-Noble Airport

Olney-Noble, Illinois, USA
METAR KOLY 140135Z AUTO 11004KT 10SM OVC045 09/08 A3003 RMK AO2 T00910080
Observed Flight Rules
Dec-14 @ 01:35 UTC (30 minutes ago) Visual Flight Rules
Wind Visibility Clouds
110° at 4 knots 10 miles
  • Overcast at 4,500' AGL
Temperatures Readings
Current 9°C / 48°F
Dewpoint 8°C / 46°F
Humidity 94%
Altimeter 30.03" Hg
Pressure 1017 hPa
Elevation 147
METAR KOLY 140135Z AUTO 11004KT 10SM OVC045 09/08 A3003 RMK AO2 T00910080
Observed Flight Rules
Dec-14 @ 01:35 UTC
(30 minutes ago)
VFR
Wind Visibility
110° at 4 knots 10 miles
Clouds
  • Overcast at 4,500' AGL
Temperature Dewpoint
9°C / 48°F 8°C / 46°F
Humidity Altimeter Pressure
94% 30.03" Hg 1017 hPa